Pays
Station

 

Conditions  météo  pour  Goose, Nfld.  -  Canada    Canada

  
17 °C
    
 
 

METAR pour Goose, Nfld. :

CYYR 161900Z 12005KT 15SM FEW050 FEW230 SCT270 17/05 A3001 RMK CU1CC1CI3 SLP164

 

Voici le bulletin pour Goose, Nfld. - Canada.
 
Le bulletin a été fait il y a une heure et 5 minutes, à 19:00 UTC .
Le vent soufflait à la vitesse de 2.6 mètres par seconde de Est/Sud-est (120°).
 
La température était de 17 °C, avec un point de rosée à 5 °C.
La pression atmosphérique était de 1016 hPa.
L'humidité relative était de 45.0%.
 
Il y avait 1 à 2/8ème de nébulosité à une hauteur de 1524 mètres, 1 à 2/8ème de nébulosité à une hauteur de 7010 mètres et 3 à 4/8ème de nébulosité à une hauteur de 8230 mètres.
 
La visibilité globale était de 24.1 kilomètres.
 

 
 
 

Pays :   A   B   C   D   E   F   G   H   I   J   K   L   M   N   O   P   Q   R   S   T   U   V   W   Y   Z

 

Partenaires :  Info Météo avec Met'info
Météo Marine avec MeteoMarine.net
Infos Site  |  Infos Légales  |  Crédits  |  Confidentialité
Contactez-nous  |  Ajouter aux favoris
© 2013-2018 METAR - Tous droits réservés